Time;durP1;ratioP1;P1;durP2;ratioP2;P2;SDS_P1;SDS_P2;PMS_P1;PMS_P2;Temp;Humidity;BMP_temperature;BMP_pressure;BME280_temperature;BME280_humidity;BME280_pressure;Samples;Min_cycle;Max_cycle;Signal;HPM_P1;HPM_P2
2021/09/15 00:00:04;;;;;;;9.87;8.97;;;;;;;19.10;86.45;100490.75;698366;28;1034;-55
2021/09/15 00:00:32;;;;;;;9.45;8.57;;;;;;;19.09;87.34;100496.97;693908;28;5067;-53
2021/09/15 00:00:52;;;;;;;10.00;9.00;;;;;;;19.08;87.85;100494.38;694471;28;1421;-56
2021/09/15 00:01:13;;;;;;;10.13;9.13;;;;;;;19.05;88.15;100485.66;695030;28;1311;-53
2021/09/15 00:01:33;;;;;;;9.90;8.85;;;;;;;19.03;88.25;100490.16;695162;28;1118;-52
2021/09/15 00:01:53;;;;;;;10.20;8.77;;;;;;;19.02;88.20;100488.44;694634;28;1109;-52
2021/09/15 00:02:14;;;;;;;10.37;9.37;;;;;;;19.01;87.65;100492.00;695114;28;1256;-55
2021/09/15 00:02:34;;;;;;;10.57;9.57;;;;;;;19.01;88.03;100485.84;694862;28;1245;-54
2021/09/15 00:02:54;;;;;;;9.93;9.03;;;;;;;19.00;88.18;100490.28;694815;28;1207;-51
2021/09/15 00:03:15;;;;;;;10.07;9.17;;;;;;;19.00;88.02;100486.78;696388;28;4379;-54
2021/09/15 00:03:37;;;;;;;10.40;9.30;;;;;;;18.97;88.18;100474.53;697592;28;1343;-55
2021/09/15 00:03:59;;;;;;;9.85;8.95;;;;;;;18.97;88.12;100478.94;697134;28;3115;-55
2021/09/15 00:04:20;;;;;;;10.10;9.10;;;;;;;18.98;87.50;100486.84;697553;28;1287;-51
2021/09/15 00:04:40;;;;;;;9.53;8.63;;;;;;;19.00;86.75;100479.69;696278;28;1291;-54
2021/09/15 00:05:01;;;;;;;9.50;8.52;;;;;;;19.00;87.93;100479.69;697490;28;1111;-54
2021/09/15 00:05:21;;;;;;;9.67;8.77;;;;;;;18.99;88.15;100477.97;694981;28;1323;-54
2021/09/15 00:05:41;;;;;;;9.70;8.70;;;;;;;18.98;87.93;100481.56;695072;28;1922;-54
2021/09/15 00:06:03;;;;;;;9.32;8.43;;;;;;;18.99;87.02;100477.97;697592;28;1213;-52
2021/09/15 00:06:24;;;;;;;9.20;8.30;;;;;;;19.01;86.66;100473.47;697367;28;4604;-55
2021/09/15 00:06:44;;;;;;;9.77;8.87;;;;;;;19.02;87.22;100471.66;697222;28;1433;-52
2021/09/15 00:07:04;;;;;;;9.65;8.75;;;;;;;19.03;86.87;100473.41;698015;28;1303;-54
2021/09/15 00:07:25;;;;;;;9.70;8.70;;;;;;;19.02;87.56;100474.31;698206;28;1126;-53
2021/09/15 00:07:45;;;;;;;10.17;9.17;;;;;;;19.01;87.86;100481.41;696782;28;3793;-55
2021/09/15 00:08:05;;;;;;;10.82;9.20;;;;;;;19.01;88.16;100480.53;698006;28;1315;-53
2021/09/15 00:08:26;;;;;;;9.93;8.93;;;;;;;19.02;87.30;100471.66;697913;28;1298;-53
2021/09/15 00:08:46;;;;;;;9.73;8.83;;;;;;;19.00;88.37;100477.03;696938;28;1222;-53
2021/09/15 00:09:06;;;;;;;9.88;8.98;;;;;;;19.00;88.03;100471.75;694286;28;4497;-51
2021/09/15 00:09:27;;;;;;;10.07;9.17;;;;;;;18.99;88.11;100475.31;694839;28;1162;-53
2021/09/15 00:09:47;;;;;;;10.27;9.30;;;;;;;18.98;87.54;100464.78;694916;28;1284;-54
2021/09/15 00:10:08;;;;;;;10.13;9.13;;;;;;;18.98;88.24;100478.91;695281;28;1332;-55
2021/09/15 00:10:28;;;;;;;10.40;9.48;;;;;;;19.00;87.05;100466.44;695132;28;1249;-56
2021/09/15 00:10:50;;;;;;;9.43;8.53;;;;;;;19.01;87.66;100481.41;694408;28;3206;-55
2021/09/15 00:11:12;;;;;;;9.80;8.90;;;;;;;18.97;88.40;100471.00;697601;28;3563;-56
2021/09/15 00:11:32;;;;;;;10.20;9.20;;;;;;;18.95;88.32;100476.38;697824;28;1189;-53
2021/09/15 00:11:54;;;;;;;10.07;9.07;;;;;;;18.96;87.65;100472.78;697595;28;1065;-53
2021/09/15 00:12:14;;;;;;;9.38;8.48;;;;;;;18.97;87.18;100473.66;696000;28;4451;-53
2021/09/15 00:12:35;;;;;;;9.47;8.57;;;;;;;18.98;87.49;100470.97;694602;28;1229;-55
2021/09/15 00:12:55;;;;;;;9.67;8.67;;;;;;;18.98;87.79;100472.72;694961;28;1233;-54
2021/09/15 00:13:16;;;;;;;9.77;8.87;;;;;;;18.98;87.18;100481.56;695576;28;1315;-51
2021/09/15 00:13:36;;;;;;;9.43;8.52;;;;;;;19.02;86.79;100474.31;694822;28;1176;-55
2021/09/15 00:13:56;;;;;;;9.50;8.60;;;;;;;18.99;87.99;100477.97;694828;28;1146;-51
2021/09/15 00:14:17;;;;;;;9.82;8.82;;;;;;;18.99;88.38;100475.31;695587;28;1095;-55
2021/09/15 00:14:37;;;;;;;9.60;8.70;;;;;;;18.98;87.87;100481.56;693901;28;3787;-53
2021/09/15 00:14:58;;;;;;;9.20;8.30;;;;;;;18.98;87.53;100481.56;694030;28;1268;-53
2021/09/15 00:15:18;;;;;;;9.20;8.30;;;;;;;19.02;86.36;100477.84;696039;28;4555;-56
2021/09/15 00:15:38;;;;;;;9.17;8.27;;;;;;;19.02;87.49;100479.63;697600;28;1149;-52
2021/09/15 00:15:59;;;;;;;9.50;8.60;;;;;;;18.99;88.24;100477.97;697685;28;1033;-55
2021/09/15 00:16:19;;;;;;;9.47;8.57;;;;;;;18.99;87.04;100480.59;697843;28;1042;-54
2021/09/15 00:16:40;;;;;;;9.10;8.23;;;;;;;19.03;86.37;100476.91;697438;28;1015;-54
2021/09/15 00:17:00;;;;;;;9.00;8.07;;;;;;;19.05;86.93;100469.75;698182;28;1315;-53
2021/09/15 00:17:20;;;;;;;9.47;8.50;;;;;;;19.04;87.87;100485.72;697680;28;1191;-55
2021/09/15 00:17:41;;;;;;;9.60;8.70;;;;;;;19.03;87.78;100484.84;697027;28;1173;-53
2021/09/15 00:18:02;;;;;;;9.70;8.70;;;;;;;19.01;87.17;100481.41;697351;28;3442;-53
2021/09/15 00:18:22;;;;;;;9.97;8.97;;;;;;;19.00;87.21;100479.69;693815;28;4554;-55
2021/09/15 00:18:43;;;;;;;10.15;9.15;;;;;;;18.99;87.49;100477.97;694123;28;1667;-57
2021/09/15 00:19:03;;;;;;;10.00;9.00;;;;;;;19.00;87.88;100481.47;693527;28;1466;-55
2021/09/15 00:19:23;;;;;;;9.82;8.90;;;;;;;18.97;88.22;100474.53;694691;28;1366;-52
2021/09/15 00:19:44;;;;;;;10.20;9.17;;;;;;;18.94;88.54;100481.72;694793;28;1019;-56
2021/09/15 00:20:07;;;;;;;10.75;9.43;;;;;;;18.92;88.69;100484.44;695260;28;1122;-54
2021/09/15 00:20:27;;;;;;;10.82;9.80;;;;;;;18.90;88.77;100478.38;695206;28;1233;-55
2021/09/15 00:20:47;;;;;;;10.75;9.65;;;;;;;18.89;88.64;100476.63;694888;28;1134;-52
2021/09/15 00:21:08;;;;;;;9.90;8.90;;;;;;;18.89;88.79;100474.00;694940;28;4572;-54
2021/09/15 00:21:29;;;;;;;10.25;9.15;;;;;;;18.88;88.22;100481.09;694976;28;3115;-56
2021/09/15 00:21:49;;;;;;;10.20;9.30;;;;;;;18.88;88.59;100475.78;695115;28;1198;-52
2021/09/15 00:22:10;;;;;;;10.43;9.43;;;;;;;18.87;88.47;100476.72;695005;28;1317;-54
2021/09/15 00:22:30;;;;;;;10.70;9.65;;;;;;;18.89;87.83;100474.00;694948;28;1092;-53
2021/09/15 00:22:50;;;;;;;10.37;9.40;;;;;;;18.91;87.69;100485.38;694061;28;1198;-56
2021/09/15 00:23:11;;;;;;;9.77;8.77;;;;;;;18.92;87.18;100481.78;695013;28;1237;-52
2021/09/15 00:23:31;;;;;;;9.70;8.70;;;;;;;18.96;86.48;100478.09;695228;28;1273;-52
2021/09/15 00:23:52;;;;;;;9.10;8.30;;;;;;;18.99;86.29;100477.97;695121;28;1270;-52
2021/09/15 00:24:12;;;;;;;9.75;8.85;;;;;;;19.01;86.94;100473.47;695742;28;4699;-56
2021/09/15 00:24:33;;;;;;;10.33;9.33;;;;;;;19.00;87.60;100479.69;697889;28;1658;-54
2021/09/15 00:24:53;;;;;;;11.88;9.90;;;;;;;18.99;88.02;100483.25;696820;28;3220;-54
2021/09/15 00:25:13;;;;;;;10.93;9.63;;;;;;;18.99;88.26;100477.97;697633;28;3556;-53
2021/09/15 00:25:34;;;;;;;11.00;9.90;;;;;;;18.99;88.17;100474.47;696660;28;1173;-53
2021/09/15 00:25:54;;;;;;;10.60;9.60;;;;;;;18.98;87.66;100481.56;697002;28;1926;-54
2021/09/15 00:26:14;;;;;;;10.07;9.07;;;;;;;18.98;87.19;100473.59;697836;28;1610;-56
2021/09/15 00:26:35;;;;;;;9.85;8.95;;;;;;;19.01;86.81;100469.94;697317;28;1322;-55
2021/09/15 00:26:55;;;;;;;9.63;8.73;;;;;;;19.01;86.70;100469.94;698324;28;1269;-51
2021/09/15 00:27:16;;;;;;;9.52;8.63;;;;;;;19.01;86.37;100470.81;696575;28;4417;-53
2021/09/15 00:27:36;;;;;;;9.53;8.63;;;;;;;19.04;85.83;100475.97;697201;28;1263;-52
2021/09/15 00:27:57;;;;;;;9.53;8.63;;;;;;;19.09;85.62;100469.63;697938;28;1117;-54
2021/09/15 00:28:19;;;;;;;9.73;8.73;;;;;;;19.12;85.40;100466.81;694356;28;2253;-54
2021/09/15 00:28:41;;;;;;;10.03;9.13;;;;;;;19.12;86.40;100472.13;691454;28;4031;-53
2021/09/15 00:29:01;;;;;;;10.48;9.48;;;;;;;19.11;87.18;100470.44;689257;28;1280;-51
2021/09/15 00:29:23;;;;;;;10.48;9.48;;;;;;;19.08;87.69;100470.53;689714;28;1093;-54
2021/09/15 00:29:43;;;;;;;11.23;9.25;;;;;;;19.05;86.96;100469.75;688452;28;1424;-55
2021/09/15 00:30:04;;;;;;;10.45;9.02;;;;;;;19.05;86.68;100469.75;691601;28;1528;-52
2021/09/15 00:30:24;;;;;;;10.38;9.38;;;;;;;19.07;86.65;100468.84;694263;28;4321;-55
2021/09/15 00:30:45;;;;;;;9.70;8.70;;;;;;;19.04;87.03;100460.09;694979;28;1262;-54
2021/09/15 00:31:05;;;;;;;9.45;8.55;;;;;;;19.02;87.30;100469.03;695050;28;1115;-52
2021/09/15 00:31:26;;;;;;;10.07;9.07;;;;;;;18.99;87.84;100466.50;694619;28;1059;-55
2021/09/15 00:31:46;;;;;;;10.07;9.07;;;;;;;18.98;87.59;100464.78;695665;28;1152;-60
2021/09/15 00:32:06;;;;;;;9.45;8.55;;;;;;;18.99;87.25;100466.50;694534;28;3419;-53
2021/09/15 00:32:27;;;;;;;9.33;8.40;;;;;;;19.01;86.41;100465.53;695031;28;1297;-54
2021/09/15 00:32:47;;;;;;;9.68;8.68;;;;;;;19.03;86.14;100455.72;694679;28;1178;-56
2021/09/15 00:33:07;;;;;;;9.63;8.47;;;;;;;19.05;86.18;100467.09;693871;28;4580;-55
2021/09/15 00:33:28;;;;;;;9.57;8.40;;;;;;;19.07;85.92;100463.53;694087;28;1490;-52
2021/09/15 00:33:48;;;;;;;9.77;8.77;;;;;;;19.07;86.63;100464.41;691543;28;1063;-56
2021/09/15 00:34:09;;;;;;;10.40;9.40;;;;;;;19.06;86.72;100462.66;692418;28;1281;-55
2021/09/15 00:34:30;;;;;;;10.35;9.25;;;;;;;19.05;86.37;100460.94;692222;28;1055;-51
2021/09/15 00:34:50;;;;;;;9.38;8.48;;;;;;;19.07;85.75;100469.69;688431;28;1164;-51
2021/09/15 00:35:11;;;;;;;9.00;8.10;;;;;;;19.11;85.30;100459.84;691200;28;1025;-52
2021/09/15 00:35:32;;;;;;;9.95;8.95;;;;;;;19.13;86.12;100468.56;692213;28;3201;-56
2021/09/15 00:35:53;;;;;;;9.90;8.93;;;;;;;19.12;85.99;100461.53;690754;28;1331;-54
2021/09/15 00:36:13;;;;;;;9.70;8.80;;;;;;;19.11;85.51;100463.34;688895;28;4673;-55
2021/09/15 00:36:33;;;;;;;9.97;8.97;;;;;;;19.12;85.78;100467.72;692098;28;1154;-52
2021/09/15 00:36:54;;;;;;;9.80;8.80;;;;;;;19.15;85.12;100464.91;695226;28;1079;-57
2021/09/15 00:37:14;;;;;;;9.63;8.73;;;;;;;19.17;85.44;100463.06;691915;28;2816;-51
2021/09/15 00:37:35;;;;;;;9.93;8.97;;;;;;;19.18;85.28;100458.63;691886;28;1587;-53
2021/09/15 00:37:55;;;;;;;9.33;8.43;;;;;;;19.20;84.98;100459.41;692116;28;1273;-52
2021/09/15 00:38:15;;;;;;;9.00;8.10;;;;;;;19.20;85.04;100456.75;695017;28;1281;-53
2021/09/15 00:38:36;;;;;;;9.82;8.88;;;;;;;19.17;86.61;100455.09;694959;28;1209;-52
2021/09/15 00:38:56;;;;;;;9.93;8.97;;;;;;;19.13;87.46;100452.66;694661;28;3490;-52
2021/09/15 00:39:16;;;;;;;10.13;9.23;;;;;;;19.10;87.52;100460.75;695181;28;4479;-54
2021/09/15 00:39:37;;;;;;;10.10;9.10;;;;;;;19.08;87.65;100459.94;693058;28;1338;-56
2021/09/15 00:39:57;;;;;;;10.23;9.17;;;;;;;19.04;86.52;100457.44;694314;28;1477;-52
2021/09/15 00:40:18;;;;;;;9.73;8.73;;;;;;;19.07;86.01;100458.25;694670;28;1280;-51
2021/09/15 00:40:38;;;;;;;9.40;8.50;;;;;;;19.08;85.99;100452.00;694053;28;1259;-53
2021/09/15 00:40:58;;;;;;;9.80;8.90;;;;;;;19.09;86.15;100459.03;692083;28;1031;-57
2021/09/15 00:41:19;;;;;;;9.87;8.97;;;;;;;19.07;86.67;100452.94;692230;28;1227;-54
2021/09/15 00:41:39;;;;;;;10.05;8.95;;;;;;;19.04;87.16;100454.78;691273;28;1227;-54
2021/09/15 00:42:00;;;;;;;10.20;9.20;;;;;;;19.03;87.33;100450.41;689268;28;1176;-55
2021/09/15 00:42:20;;;;;;;9.73;8.83;;;;;;;19.01;86.41;100449.63;685681;28;4570;-53
2021/09/15 00:42:40;;;;;;;9.85;8.85;;;;;;;19.02;86.49;100456.66;682971;28;2164;-53
2021/09/15 00:43:01;;;;;;;10.20;9.20;;;;;;;19.01;86.92;100452.28;688133;28;1157;-54
2021/09/15 00:43:23;;;;;;;10.57;9.35;;;;;;;18.98;87.29;100452.41;688702;28;1159;-53
2021/09/15 00:44:01;;;;;;;10.70;9.63;;;;;;;18.96;86.83;100451.59;686119;28;2167;-56
2021/09/15 00:44:21;;;;;;;9.75;8.82;;;;;;;18.98;86.20;100454.19;692545;28;1274;-53
2021/09/15 00:44:43;;;;;;;9.75;8.80;;;;;;;18.98;86.28;100455.06;694783;28;1473;-56
2021/09/15 00:45:04;;;;;;;9.60;8.70;;;;;;;18.99;86.23;100456.75;692166;28;1257;-53
2021/09/15 00:45:24;;;;;;;9.70;8.80;;;;;;;19.01;86.09;100456.69;694435;28;4430;-57
2021/09/15 00:45:44;;;;;;;10.67;9.27;;;;;;;19.01;86.48;100460.22;697247;28;1938;-53
2021/09/15 00:46:05;;;;;;;10.48;9.40;;;;;;;19.01;86.53;100459.34;698786;28;3618;-56
2021/09/15 00:46:26;;;;;;;9.90;8.97;;;;;;;18.98;86.77;100452.41;699658;28;3711;-55
2021/09/15 00:46:46;;;;;;;10.10;9.10;;;;;;;18.97;86.49;100458.63;697123;28;1570;-53
2021/09/15 00:47:07;;;;;;;10.20;9.20;;;;;;;18.97;86.38;100458.63;698466;28;1174;-52
2021/09/15 00:47:27;;;;;;;10.00;9.10;;;;;;;18.98;86.42;100455.06;697792;28;1217;-56
2021/09/15 00:47:48;;;;;;;10.02;9.13;;;;;;;18.98;86.85;100455.06;696635;28;1148;-55
2021/09/15 00:48:09;;;;;;;9.75;8.85;;;;;;;18.96;87.01;100454.25;696813;28;4441;-53
2021/09/15 00:48:29;;;;;;;10.07;9.17;;;;;;;18.95;87.24;100460.47;694481;28;1328;-53
2021/09/15 00:48:49;;;;;;;10.50;9.50;;;;;;;18.95;87.36;100446.38;691386;28;1059;-54
2021/09/15 00:49:10;;;;;;;10.18;9.15;;;;;;;18.93;87.48;100446.44;692571;28;1278;-53
2021/09/15 00:49:30;;;;;;;9.93;9.03;;;;;;;18.92;87.27;100455.31;691682;28;3439;-53
2021/09/15 00:49:51;;;;;;;10.18;9.23;;;;;;;18.90;87.31;100449.22;691819;28;1380;-53
2021/09/15 00:50:14;;;;;;;9.85;8.88;;;;;;;18.88;87.16;100457.25;689227;28;1616;-52
2021/09/15 00:50:35;;;;;;;9.75;8.63;;;;;;;18.88;87.25;100448.44;692668;28;1483;-57
2021/09/15 00:50:56;;;;;;;10.20;8.90;;;;;;;18.89;87.13;100448.34;695567;28;1244;-55
2021/09/15 00:51:16;;;;;;;10.18;9.15;;;;;;;18.88;87.41;100444.00;697485;28;4438;-55
2021/09/15 00:51:41;;;;;;;9.80;8.90;;;;;;;18.88;86.89;100444.00;696926;28;996;-53
2021/09/15 00:52:02;;;;;;;10.55;9.55;;;;;;;18.92;86.50;100450.00;697201;28;1277;-55
2021/09/15 00:52:22;;;;;;;10.15;9.13;;;;;;;18.94;86.58;100452.59;696784;28;1162;-55
2021/09/15 00:52:44;;;;;;;10.35;9.35;;;;;;;18.92;87.22;100444.72;696784;28;1296;-51
2021/09/15 00:53:08;;;;;;;10.00;9.07;;;;;;;18.90;86.79;100443.94;695923;28;3592;-54
2021/09/15 00:53:30;;;;;;;9.88;8.88;;;;;;;18.91;86.48;100448.28;697498;28;1266;-53
2021/09/15 00:53:51;;;;;;;10.57;9.57;;;;;;;18.91;87.05;100444.78;696945;28;1099;-56
2021/09/15 00:54:15;;;;;;;10.90;9.90;;;;;;;18.88;88.26;100445.78;695461;28;4385;-52
2021/09/15 00:54:37;;;;;;;10.75;9.65;;;;;;;18.85;88.56;100443.22;695172;28;1095;-52
2021/09/15 00:54:59;;;;;;;10.32;9.30;;;;;;;18.86;87.37;100439.66;695989;28;1103;-54
2021/09/15 00:55:20;;;;;;;9.63;8.63;;;;;;;18.90;86.44;100438.63;696577;28;1165;-56
2021/09/15 00:55:40;;;;;;;10.18;9.18;;;;;;;18.94;86.57;100444.66;696049;28;1614;-56
2021/09/15 00:56:01;;;;;;;10.20;9.20;;;;;;;18.89;87.65;100445.72;697934;28;3475;-53
2021/09/15 00:56:21;;;;;;;10.48;9.43;;;;;;;18.86;88.05;100442.31;696721;28;1385;-52
2021/09/15 00:56:42;;;;;;;10.38;9.38;;;;;;;18.83;87.81;100445.06;693935;28;1431;-55
2021/09/15 00:57:04;;;;;;;9.98;9.07;;;;;;;18.81;88.35;100445.13;692216;28;1456;-52
2021/09/15 00:57:26;;;;;;;10.68;9.68;;;;;;;18.77;89.00;100450.63;692136;28;4950;-56
2021/09/15 00:57:46;;;;;;;10.70;9.60;;;;;;;18.75;89.26;100447.19;691845;28;1203;-55
2021/09/15 00:58:09;;;;;;;10.48;9.38;;;;;;;18.73;88.76;100449.91;692404;28;1064;-52
2021/09/15 00:58:33;;;;;;;10.38;9.38;;;;;;;18.72;88.69;100443.75;696307;28;1213;-53
2021/09/15 00:58:55;;;;;;;9.95;9.05;;;;;;;18.70;89.15;100450.88;693992;28;1162;-55
2021/09/15 00:59:16;;;;;;;10.55;9.63;;;;;;;18.69;89.04;100443.88;694653;28;1398;-53
2021/09/15 00:59:39;;;;;;;10.68;9.68;;;;;;;18.69;89.02;100451.84;691778;28;3902;-56
2021/09/15 01:00:01;;;;;;;10.35;9.35;;;;;;;18.68;88.92;100438.66;692034;28;1415;-54
2021/09/15 01:00:23;;;;;;;10.00;9.00;;;;;;;18.67;89.15;100444.88;690610;28;5384;-54
2021/09/15 01:00:46;;;;;;;10.65;9.65;;;;;;;18.66;89.81;100438.72;692424;28;1305;-52
2021/09/15 01:01:06;;;;;;;10.65;9.63;;;;;;;18.64;89.83;100443.22;691713;28;1209;-51
2021/09/15 01:01:28;;;;;;;10.38;9.38;;;;;;;18.61;89.34;100440.69;691076;28;1340;-53
2021/09/15 01:01:55;;;;;;;10.52;9.45;;;;;;;18.63;88.69;100444.13;694809;28;1410;-52
2021/09/15 01:02:16;;;;;;;9.93;8.93;;;;;;;18.63;89.43;100441.47;694400;28;3599;-54
2021/09/15 01:02:37;;;;;;;11.02;9.93;;;;;;;18.60;90.28;100444.25;691664;28;3513;-56
2021/09/15 01:03:04;;;;;;;11.00;9.95;;;;;;;18.57;90.65;100441.75;690328;28;1326;-54
2021/09/15 01:03:25;;;;;;;11.23;10.13;;;;;;;18.56;90.55;100440.03;690763;28;4660;-55
2021/09/15 01:03:46;;;;;;;11.87;10.67;;;;;;;18.55;90.14;100433.88;687702;28;1564;-52
2021/09/15 01:04:07;;;;;;;11.43;10.23;;;;;;;18.55;89.84;100440.94;686461;28;2046;-53
2021/09/15 01:04:28;;;;;;;10.85;9.85;;;;;;;18.53;90.32;100432.22;688626;28;1112;-55
2021/09/15 01:04:49;;;;;;;10.82;9.82;;;;;;;18.51;90.43;100434.94;689705;28;1105;-55
2021/09/15 01:05:12;;;;;;;11.27;10.27;;;;;;;18.51;90.35;100431.41;692611;28;1244;-55
2021/09/15 01:05:32;;;;;;;11.07;10.02;;;;;;;18.51;90.60;100434.03;692404;28;3508;-55
2021/09/15 01:05:56;;;;;;;10.90;9.80;;;;;;;18.53;89.64;100437.50;691964;28;1910;-55
2021/09/15 01:06:17;;;;;;;10.20;9.25;;;;;;;18.54;89.41;100433.94;691185;28;4378;-52
2021/09/15 01:06:39;;;;;;;10.00;9.10;;;;;;;18.55;88.56;100435.66;691667;28;1588;-51
2021/09/15 01:07:02;;;;;;;10.30;9.38;;;;;;;18.58;88.83;100435.53;694512;28;1131;-52
2021/09/15 01:07:25;;;;;;;10.70;9.70;;;;;;;18.61;88.74;100430.13;695211;28;1275;-57
2021/09/15 01:07:47;;;;;;;10.45;9.45;;;;;;;18.61;88.57;100430.13;690289;28;1807;-52
2021/09/15 01:08:08;;;;;;;10.43;9.43;;;;;;;18.64;88.26;100423.84;691624;28;1313;-53
2021/09/15 01:08:30;;;;;;;10.05;9.10;;;;;;;18.65;88.49;100431.72;689613;28;1029;-52
2021/09/15 01:08:51;;;;;;;10.00;9.00;;;;;;;18.67;88.06;100429.00;683399;28;3133;-54
2021/09/15 01:09:17;;;;;;;10.63;9.60;;;;;;;18.66;88.92;100429.91;685700;28;4708;-54
2021/09/15 01:09:40;;;;;;;10.35;9.35;;;;;;;18.64;89.90;100429.97;692793;28;1450;-52
2021/09/15 01:10:05;;;;;;;10.57;9.57;;;;;;;18.63;89.34;100428.25;694469;28;1419;-53
2021/09/15 01:10:31;;;;;;;9.70;8.80;;;;;;;18.64;88.31;100432.63;697503;28;1051;-53
2021/09/15 01:11:08;;;;;;;10.18;9.18;;;;;;;18.63;89.46;100433.53;695505;28;1506;-52
2021/09/15 01:11:35;;;;;;;10.63;9.63;;;;;;;18.63;88.79;100432.69;696466;28;1055;-51
2021/09/15 01:12:14;;;;;;;10.15;9.15;;;;;;;18.65;88.14;100436.13;694325;28;4425;-52
2021/09/15 01:12:59;;;;;;;9.95;8.95;;;;;;;18.68;88.05;100436.88;689166;28;1322;-53
2021/09/15 01:13:37;;;;;;;10.50;9.50;;;;;;;18.68;88.75;100436.88;686104;28;1249;-55
2021/09/15 01:14:18;;;;;;;10.25;9.25;;;;;;;18.69;88.84;100440.34;694479;28;1221;-53
2021/09/15 01:14:57;;;;;;;10.80;9.80;;;;;;;18.64;89.79;100435.28;694548;28;3337;-56
2021/09/15 01:15:47;;;;;;;10.98;9.98;;;;;;;18.56;89.97;100429.44;685718;28;4946;-56
2021/09/15 01:16:50;;;;;;;10.85;9.77;;;;;;;18.59;88.83;100431.94;683180;28;1230;-52
2021/09/15 01:17:31;;;;;;;9.73;8.77;;;;;;;18.67;87.37;100427.19;683636;28;1184;-57
2021/09/15 01:18:19;;;;;;;9.75;8.80;;;;;;;18.79;87.07;100432.88;685188;28;4600;-51
2021/09/15 01:18:58;;;;;;;10.07;9.18;;;;;;;18.77;88.26;100437.41;697739;28;944;-53
2021/09/15 01:19:57;;;;;;;10.23;8.90;;;;;;;18.75;87.63;100426.88;692144;28;1470;-55
2021/09/15 01:20:38;;;;;;;10.73;9.20;;;;;;;18.71;88.53;100435.88;688680;28;3078;-53
2021/09/15 01:21:24;;;;;;;10.60;9.60;;;;;;;18.69;89.11;100438.59;685805;28;4779;-52
2021/09/15 01:22:05;;;;;;;10.38;9.38;;;;;;;18.67;88.91;100437.78;691720;28;1263;-55
2021/09/15 01:22:41;;;;;;;10.10;9.10;;;;;;;18.69;87.96;100435.94;689438;28;1272;-52
2021/09/15 01:23:24;;;;;;;10.52;9.43;;;;;;;18.65;89.33;100430.81;683906;28;1216;-51
2021/09/15 01:24:07;;;;;;;10.73;9.73;;;;;;;18.58;89.70;100435.53;685000;28;4467;-53
2021/09/15 01:24:39;;;;;;;10.18;9.18;;;;;;;18.55;90.01;100440.94;693277;28;1011;-55
2021/09/15 01:25:17;;;;;;;10.48;9.48;;;;;;;18.54;90.20;100433.94;692482;28;1347;-57
2021/09/15 01:25:57;;;;;;;10.88;9.88;;;;;;;18.52;90.73;100427.84;692836;28;1967;-55
2021/09/15 01:26:34;;;;;;;10.32;9.32;;;;;;;18.50;90.61;100427.06;694943;28;995;-53
2021/09/15 01:27:11;;;;;;;11.35;10.15;;;;;;;18.50;90.40;100430.56;691230;28;4599;-52
2021/09/15 01:27:50;;;;;;;10.52;9.52;;;;;;;18.51;89.96;100426.09;694466;28;1063;-54
2021/09/15 01:28:16;;;;;;;10.52;9.43;;;;;;;18.51;90.19;100431.41;695111;28;1524;-52
2021/09/15 01:28:40;;;;;;;11.20;10.10;;;;;;;18.49;90.52;100430.63;694211;28;1278;-53
2021/09/15 01:29:05;;;;;;;10.88;9.80;;;;;;;18.47;91.27;100429.81;693945;28;1248;-54
2021/09/15 01:29:29;;;;;;;11.00;9.90;;;;;;;18.46;90.81;100428.09;692095;28;1341;-51
2021/09/15 01:29:51;;;;;;;10.35;9.35;;;;;;;18.46;90.21;100431.59;691140;28;3474;-53
2021/09/15 01:30:21;;;;;;;10.73;9.73;;;;;;;18.45;90.71;100426.38;691451;28;4331;-53
2021/09/15 01:30:46;;;;;;;10.40;9.40;;;;;;;18.43;90.82;100428.22;693777;28;1179;-53
2021/09/15 01:31:06;;;;;;;10.47;9.57;;;;;;;18.43;90.83;100422.91;695038;28;1349;-56
2021/09/15 01:31:27;;;;;;;10.82;9.82;;;;;;;18.42;91.41;100434.44;694678;28;1056;-51
2021/09/15 01:31:59;;;;;;;11.47;10.30;;;;;;;18.40;91.47;100431.00;694269;28;1048;-52
2021/09/15 01:32:22;;;;;;;11.23;10.13;;;;;;;18.40;91.75;100426.56;694408;28;1224;-51
2021/09/15 01:32:42;;;;;;;11.25;10.07;;;;;;;18.40;91.78;100425.69;691686;28;3337;-51
2021/09/15 01:33:03;;;;;;;10.90;9.90;;;;;;;18.37;91.34;100430.22;691066;28;1432;-53
2021/09/15 01:33:23;;;;;;;10.88;9.88;;;;;;;18.36;91.05;100417.91;691191;28;4532;-51
2021/09/15 01:33:44;;;;;;;10.97;9.87;;;;;;;18.36;91.32;100425.84;692047;28;1167;-51
2021/09/15 01:34:04;;;;;;;10.70;9.60;;;;;;;18.37;91.07;100432.84;689336;28;1255;-51
2021/09/15 01:34:26;;;;;;;10.68;9.63;;;;;;;18.38;90.22;100415.19;689321;28;1274;-52
2021/09/15 01:34:48;;;;;;;10.38;9.40;;;;;;;18.40;90.42;100416.00;689073;28;1088;-54
2021/09/15 01:35:11;;;;;;;10.27;9.38;;;;;;;18.42;89.89;100419.41;689268;28;1692;-55
2021/09/15 01:35:33;;;;;;;10.80;9.70;;;;;;;18.44;89.85;100420.22;687769;28;3200;-54
2021/09/15 01:35:54;;;;;;;10.43;9.50;;;;;;;18.45;89.97;100423.72;691447;28;3794;-52
2021/09/15 01:36:14;;;;;;;10.88;9.88;;;;;;;18.45;90.12;100418.44;694934;28;4355;-52
2021/09/15 01:36:37;;;;;;;10.70;9.60;;;;;;;18.45;89.52;100414.00;696992;28;1292;-52
2021/09/15 01:36:57;;;;;;;10.13;9.20;;;;;;;18.47;89.42;100420.09;697743;28;1329;-51
2021/09/15 01:37:19;;;;;;;10.02;9.13;;;;;;;18.49;89.64;100417.38;695042;28;1207;-54
2021/09/15 01:37:53;;;;;;;10.57;9.57;;;;;;;18.47;89.70;100422.75;691915;28;1238;-53
2021/09/15 01:38:15;;;;;;;10.60;9.65;;;;;;;18.45;90.54;100423.72;689024;28;1383;-55
2021/09/15 01:38:37;;;;;;;10.27;9.38;;;;;;;18.43;90.21;100423.81;694186;28;4166;-52
2021/09/15 01:38:57;;;;;;;10.33;9.30;;;;;;;18.40;90.76;100420.41;694572;28;3399;-53
2021/09/15 01:39:18;;;;;;;10.45;9.40;;;;;;;18.38;90.80;100429.25;695978;28;4573;-54
2021/09/15 01:39:40;;;;;;;10.50;9.60;;;;;;;18.40;90.38;100420.41;694637;28;1170;-53
2021/09/15 01:40:00;;;;;;;10.60;9.60;;;;;;;18.38;91.09;100417.81;693378;28;1247;-53
2021/09/15 01:40:24;;;;;;;10.90;9.80;;;;;;;18.37;90.48;100410.81;687864;28;1323;-53
2021/09/15 01:40:44;;;;;;;10.50;9.50;;;;;;;18.40;89.79;100416.00;688586;28;1290;-54
2021/09/15 01:41:05;;;;;;;10.48;9.43;;;;;;;18.37;90.88;100416.97;689199;28;1268;-55
2021/09/15 01:41:25;;;;;;;10.37;9.43;;;;;;;18.37;91.36;100416.09;692992;28;3196;-53
2021/09/15 01:41:47;;;;;;;10.82;9.73;;;;;;;18.36;91.47;100415.25;694538;28;3445;-53
2021/09/15 01:42:09;;;;;;;10.80;9.80;;;;;;;18.36;90.53;100417.91;694783;28;4600;-51
2021/09/15 01:42:30;;;;;;;10.73;9.73;;;;;;;18.38;89.90;100413.38;696364;28;1498;-54
2021/09/15 01:42:52;;;;;;;10.20;9.30;;;;;;;18.40;90.36;100413.34;696423;28;1496;-56
2021/09/15 01:43:12;;;;;;;10.47;9.47;;;;;;;18.37;90.76;100416.09;696427;28;1268;-53
2021/09/15 01:43:35;;;;;;;10.45;9.45;;;;;;;18.36;90.42;100412.59;692734;28;1290;-52
2021/09/15 01:43:56;;;;;;;10.43;9.45;;;;;;;18.36;90.83;100415.25;691711;28;1426;-51
2021/09/15 01:44:17;;;;;;;10.70;9.70;;;;;;;18.33;91.21;100414.50;692259;28;1828;-52
2021/09/15 01:44:46;;;;;;;11.03;9.93;;;;;;;18.30;91.36;100410.19;690257;28;3425;-54
2021/09/15 01:45:11;;;;;;;10.70;9.70;;;;;;;18.26;91.91;100413.88;689895;28;4290;-51
2021/09/15 01:45:32;;;;;;;11.15;10.05;;;;;;;18.25;92.32;100411.31;691630;28;1535;-51
2021/09/15 01:45:53;;;;;;;11.13;10.13;;;;;;;18.23;92.33;100411.38;693280;28;1991;-53
2021/09/15 01:46:16;;;;;;;11.57;10.48;;;;;;;18.23;92.00;100411.38;696259;28;1277;-52
2021/09/15 01:46:36;;;;;;;11.50;10.35;;;;;;;18.22;92.15;100407.03;698004;28;1139;-53
2021/09/15 01:47:00;;;;;;;11.30;10.30;;;;;;;18.20;91.94;100408.84;701861;28;1284;-52
2021/09/15 01:47:20;;;;;;;10.65;9.65;;;;;;;18.18;92.33;100405.44;698187;28;3265;-55
2021/09/15 01:47:41;;;;;;;10.88;9.88;;;;;;;18.19;92.14;100410.66;688428;28;3645;-52
2021/09/15 01:48:02;;;;;;;11.20;10.17;;;;;;;18.20;91.91;100408.84;688581;28;1434;-52
2021/09/15 01:48:26;;;;;;;10.68;9.68;;;;;;;18.23;91.19;100403.44;688293;28;5145;-52
2021/09/15 01:48:46;;;;;;;11.10;10.00;;;;;;;18.26;90.71;100410.38;694582;28;1202;-53
2021/09/15 01:49:07;;;;;;;10.57;9.48;;;;;;;18.29;90.25;100407.59;694538;28;1387;-52
2021/09/15 01:49:32;;;;;;;10.77;9.40;;;;;;;18.32;90.49;100400.41;696377;28;1226;-51